METAR AND TAF INFORMATION
METAR FOR EPKT
ADDS - METARS form results

(0139 UTC 18 June 2019)
Data provider http://aviationweather.gov/metar/data/
 
METAR text: EPKT 180130Z 04005KT CAVOK 14/11 Q1020
Conditions at: EPKT (KATOWICE/PYRZOWI, PL) observed 0130 UTC 18 June 2019
Temperature: 14.0°C (57°F)
Dewpoint: 11.0°C (52°F) [RH = 82%]
Pressure (altimeter): 30.12 inches Hg (1020.0 mb)
Winds: from the NE (40 degrees) at 6 MPH (5 knots; 2.6 m/s)
Visibility: 6 or more miles (10+ km)
Ceiling: ceiling and visibility are OK
Clouds: unknown
Weather: no significant weather observed at this time

METAR text: EPKT 180100Z 05006KT CAVOK 15/11 Q1020
Conditions at: EPKT (KATOWICE/PYRZOWI, PL) observed 0100 UTC 18 June 2019
Temperature: 15.0°C (59°F)
Dewpoint: 11.0°C (52°F) [RH = 77%]
Pressure (altimeter): 30.12 inches Hg (1020.0 mb)
Winds: from the NE (50 degrees) at 7 MPH (6 knots; 3.1 m/s)
Visibility: 6 or more miles (10+ km)
Ceiling: ceiling and visibility are OK
Clouds: unknown
Weather: no significant weather observed at this time

Forecast for: EPKT (KATOWICE/PYRZOWI, PL)
Text: TAF EPKT 172330Z 1800/1824 05006KT CAVOK
Forecast period: 0000 UTC 18 June 2019 to 0000 UTC 19 June 2019
Forecast type: FROM: standard forecast or significant change
Winds: from the NE (50 degrees) at 7 MPH (6 knots; 3.1 m/s)
Visibility: 6 or more miles 10+ km)
Ceiling: unknown
Clouds: missing
Weather: NSW  (no significant weather)

 AIRPORT MAP

 RUNWAY INFORMATION
Runway 09 Runway length 9183 ft Runway width 195 ft
Runway elevation 970 ft Runway displaced threshold 0 ft Runway heading 90
Runway 27 Runway length 9183 ft Runway width 195 ft
Runway elevation 994 ft Runway displaced threshold 0 ft Runway heading 270

 AIRPORT FREQUENCIES
Type APP Name APP Frequency 121.075 MHZ
Type GCCD Name HANDLING Frequency 131.45 MHZ
Type TWR Name TWR Frequency 129.25 MHZ

 AIRPORT NEAR NAVIGATION AIDS
Type NDB Name Katowice Frequency 285 KHZ



Powered by Virtual Airlines Manager [v2.6.2]